createdAt,value
2023-05-21T00:00:27.744Z,102230.00
2023-05-21T00:02:56.408Z,102234.91
2023-05-21T00:05:26.771Z,102237.78
2023-05-21T00:07:56.127Z,102240.91
2023-05-21T00:10:24.696Z,102239.22
2023-05-21T00:12:53.437Z,102238.75
2023-05-21T00:15:22.014Z,102238.03
2023-05-21T00:17:50.728Z,102228.97
2023-05-21T00:20:19.374Z,102242.25
2023-05-21T00:22:49.405Z,102236.16
2023-05-21T00:25:18.105Z,102230.75
2023-05-21T00:27:46.688Z,102228.94
2023-05-21T00:30:16.456Z,102230.34
2023-05-21T00:32:45.227Z,102234.44
2023-05-21T00:35:14.180Z,102236.09
2023-05-21T00:37:42.947Z,102236.09
2023-05-21T00:40:14.114Z,102232.97
2023-05-21T00:42:42.541Z,102239.75
2023-05-21T00:45:11.571Z,102239.38
2023-05-21T00:47:42.011Z,102244.31
2023-05-21T00:50:12.324Z,102242.69
2023-05-21T00:52:42.990Z,102242.53
2023-05-21T00:55:13.576Z,102244.75
2023-05-21T00:57:43.013Z,102248.41
2023-05-21T01:00:13.039Z,102245.84
2023-05-21T01:02:42.375Z,102245.53
2023-05-21T01:05:12.038Z,102243.28
2023-05-21T01:07:42.798Z,102247.38
2023-05-21T01:10:13.607Z,102243.97
2023-05-21T01:12:45.248Z,102242.97
2023-05-21T01:15:14.418Z,102254.47
2023-05-21T01:17:46.285Z,102255.34
2023-05-21T01:20:18.495Z,102249.19
2023-05-21T01:22:54.503Z,102250.44
2023-05-21T01:25:24.396Z,102246.22
2023-05-21T01:27:53.394Z,102245.22
2023-05-21T01:30:23.698Z,102253.75
2023-05-21T01:33:02.123Z,102251.84
2023-05-21T01:35:35.171Z,102250.91
2023-05-21T01:38:13.753Z,102252.38
2023-05-21T01:40:49.295Z,102250.97
2023-05-21T01:43:18.829Z,102255.28
2023-05-21T01:45:48.981Z,102250.03
2023-05-21T01:48:18.931Z,102248.47
2023-05-21T01:50:48.908Z,102247.66
2023-05-21T01:53:18.995Z,102240.03
2023-05-21T01:55:47.650Z,102240.38
2023-05-21T01:58:17.190Z,102251.13
2023-05-21T02:00:46.887Z,102250.63
2023-05-21T02:03:16.728Z,102249.56
2023-05-21T02:05:45.734Z,102253.41
2023-05-21T02:08:15.505Z,102256.63
2023-05-21T02:10:45.680Z,102255.34
2023-05-21T02:13:14.461Z,102256.47
2023-05-21T02:15:43.401Z,102251.72
2023-05-21T02:18:12.031Z,102267.88
2023-05-21T02:20:40.769Z,102259.84
2023-05-21T02:23:09.379Z,102258.34
2023-05-21T02:25:38.333Z,102265.53
2023-05-21T02:28:08.585Z,102260.25
2023-05-21T02:30:37.391Z,102262.28
2023-05-21T02:33:06.091Z,102260.31
2023-05-21T02:35:35.472Z,102266.53
2023-05-21T02:38:04.153Z,102265.41
2023-05-21T02:40:33.398Z,102267.63
2023-05-21T02:43:01.945Z,102260.88
2023-05-21T02:45:34.701Z,102249.97
2023-05-21T02:48:03.398Z,102254.97
2023-05-21T02:50:36.320Z,102251.69
2023-05-21T02:53:05.032Z,102253.50
2023-05-21T02:55:34.444Z,102246.59
2023-05-21T02:58:03.747Z,102250.06
2023-05-21T03:00:34.027Z,102246.91
2023-05-21T03:03:02.950Z,102234.97
2023-05-21T03:05:31.901Z,102246.06
2023-05-21T03:08:00.533Z,102242.00
2023-05-21T03:10:29.186Z,102239.59
2023-05-21T03:12:57.852Z,102243.75
2023-05-21T03:15:26.468Z,102241.78
2023-05-21T03:17:57.331Z,102244.16
2023-05-21T03:20:27.111Z,102235.16
2023-05-21T03:22:56.281Z,102239.59
2023-05-21T03:25:25.464Z,102248.50
2023-05-21T03:27:56.013Z,102257.69
2023-05-21T03:30:49.884Z,102248.16
2023-05-21T03:33:35.160Z,102257.00
2023-05-21T03:36:13.052Z,102257.91
2023-05-21T03:38:41.709Z,102253.56
2023-05-21T03:41:11.771Z,102252.56
2023-05-21T03:43:42.153Z,102248.09
2023-05-21T03:46:10.924Z,102246.75
2023-05-21T03:49:05.092Z,102240.34
2023-05-21T03:51:35.347Z,102241.25
2023-05-21T03:54:04.148Z,102229.25
2023-05-21T03:56:33.538Z,102228.38
2023-05-21T03:59:02.666Z,102230.91
2023-05-21T04:01:33.246Z,102236.38
2023-05-21T04:04:03.027Z,102239.75
2023-05-21T04:06:33.341Z,102232.03
2023-05-21T04:09:02.043Z,102234.91
2023-05-21T04:11:31.582Z,102238.16
2023-05-21T04:14:00.240Z,102236.06
2023-05-21T04:16:28.932Z,102236.97
2023-05-21T04:18:57.653Z,102224.66
2023-05-21T04:21:28.494Z,102223.69
2023-05-21T04:23:58.717Z,102219.41
2023-05-21T04:26:42.580Z,102218.56
2023-05-21T04:29:11.909Z,102217.53
2023-05-21T04:31:40.657Z,102222.00
2023-05-21T04:34:09.437Z,102215.09
2023-05-21T04:36:38.127Z,102208.63
2023-05-21T04:39:08.522Z,102216.50
2023-05-21T04:41:38.712Z,102209.19
2023-05-21T04:44:09.395Z,102204.19
2023-05-21T04:46:41.000Z,102210.66
2023-05-21T04:49:11.790Z,102218.50
2023-05-21T04:51:40.770Z,102216.84
2023-05-21T04:54:11.086Z,102212.13
2023-05-21T04:56:39.812Z,102219.69
2023-05-21T04:59:08.581Z,102217.88
2023-05-21T05:01:38.743Z,102220.94
2023-05-21T05:04:07.848Z,102216.94
2023-05-21T05:06:36.670Z,102216.22
2023-05-21T05:09:05.959Z,102222.91
2023-05-21T05:11:36.230Z,102217.41
2023-05-21T05:14:05.386Z,102223.94
2023-05-21T05:16:35.835Z,102216.97
2023-05-21T05:19:04.686Z,102213.59
2023-05-21T05:21:33.448Z,102220.34
2023-05-21T05:24:02.426Z,102211.53
2023-05-21T05:26:33.392Z,102210.69
2023-05-21T05:29:03.508Z,102214.75
2023-05-21T05:31:32.353Z,102207.75
2023-05-21T05:34:01.440Z,102211.84
2023-05-21T05:36:31.655Z,102212.09
2023-05-21T05:39:00.512Z,102211.88
2023-05-21T05:41:29.357Z,102209.63
2023-05-21T05:43:58.037Z,102215.78
2023-05-21T05:46:32.341Z,102215.91
2023-05-21T05:49:01.162Z,102212.84
2023-05-21T05:51:30.415Z,102203.44
2023-05-21T05:53:59.288Z,102205.34
2023-05-21T05:56:28.124Z,102199.03
2023-05-21T05:58:56.764Z,102193.84
2023-05-21T06:01:26.501Z,102189.88
2023-05-21T06:03:57.584Z,102190.34
2023-05-21T06:06:26.839Z,102186.88
2023-05-21T06:08:55.783Z,102191.06
2023-05-21T06:11:25.849Z,102188.66
2023-05-21T06:13:54.459Z,102181.59
2023-05-21T06:16:23.832Z,102175.59
2023-05-21T06:18:52.572Z,102177.19
2023-05-21T06:21:22.748Z,102178.09
2023-05-21T06:23:51.390Z,102182.88
2023-05-21T06:26:20.489Z,102184.19
2023-05-21T06:28:51.105Z,102188.72
2023-05-21T06:31:22.638Z,102189.19
2023-05-21T06:33:51.510Z,102188.69
2023-05-21T06:36:20.300Z,102188.47
2023-05-21T06:38:51.016Z,102188.50
2023-05-21T06:41:19.671Z,102183.31
2023-05-21T06:43:52.780Z,102183.03
2023-05-21T06:46:40.239Z,102177.47
2023-05-21T06:49:11.879Z,102177.91
2023-05-21T06:51:42.249Z,102170.13
2023-05-21T06:54:14.462Z,102167.06
2023-05-21T06:56:43.692Z,102158.88
2023-05-21T06:59:12.439Z,102156.66
2023-05-21T07:01:42.811Z,102157.06
2023-05-21T07:04:11.862Z,102147.56
2023-05-21T07:06:41.953Z,102137.28
2023-05-21T07:09:10.728Z,102140.25
2023-05-21T07:11:41.378Z,102139.03
2023-05-21T07:14:11.552Z,102136.28
2023-05-21T07:16:40.628Z,102140.22
2023-05-21T07:19:10.200Z,102131.72
2023-05-21T07:21:39.368Z,102133.06
2023-05-21T07:24:09.471Z,102136.25
2023-05-21T07:26:42.357Z,102133.16
2023-05-21T07:29:12.650Z,102132.22
2023-05-21T07:31:41.375Z,102128.91
2023-05-21T07:34:10.130Z,102128.59
2023-05-21T07:36:40.772Z,102133.56
2023-05-21T07:39:09.599Z,102121.47
2023-05-21T07:41:39.506Z,102120.88
2023-05-21T07:44:11.702Z,102122.84
2023-05-21T07:46:43.755Z,102117.53
2023-05-21T07:49:17.152Z,102117.16
2023-05-21T07:51:47.743Z,102123.94
2023-05-21T07:54:17.673Z,102112.41
2023-05-21T07:56:47.109Z,102118.13
2023-05-21T07:59:31.984Z,102108.47
2023-05-21T08:02:01.082Z,102109.78
2023-05-21T08:04:29.777Z,102101.44
2023-05-21T08:06:58.417Z,102103.41
2023-05-21T08:09:26.952Z,102100.22
2023-05-21T08:11:55.804Z,102102.19
2023-05-21T08:14:24.310Z,102102.03
2023-05-21T08:16:54.358Z,102096.34
2023-05-21T08:19:23.236Z,102090.00
2023-05-21T08:21:53.063Z,102088.03
2023-05-21T08:24:23.439Z,102095.91
2023-05-21T08:26:53.615Z,102083.16
2023-05-21T08:29:22.273Z,102080.41
2023-05-21T08:31:51.130Z,102078.34
2023-05-21T08:34:21.188Z,102073.06
2023-05-21T08:36:59.615Z,102072.06
2023-05-21T08:39:50.987Z,102070.28
2023-05-21T08:45:07.331Z,102066.97
2023-05-21T08:47:37.652Z,102062.38
2023-05-21T08:50:11.824Z,102074.16
2023-05-21T08:52:41.089Z,102062.03
2023-05-21T08:55:10.955Z,102056.69
2023-05-21T08:57:42.450Z,102050.88
2023-05-21T09:00:12.607Z,102041.19
2023-05-21T09:02:44.251Z,102037.22
2023-05-21T09:05:16.163Z,102037.75
2023-05-21T09:07:51.061Z,102042.50
2023-05-21T09:10:37.647Z,102038.38
2023-05-21T09:13:08.159Z,102039.53
2023-05-21T09:15:37.789Z,102039.22
2023-05-21T09:18:07.815Z,102042.72
2023-05-21T09:20:47.159Z,102043.22
2023-05-21T09:23:19.094Z,102040.97
2023-05-21T09:25:49.659Z,102036.88
2023-05-21T09:28:26.802Z,102044.06
2023-05-21T09:30:55.400Z,102036.88
2023-05-21T09:33:29.842Z,102033.47
2023-05-21T09:36:00.467Z,102035.84
2023-05-21T09:38:29.665Z,102033.97
2023-05-21T09:40:58.913Z,102025.28
2023-05-21T09:43:28.711Z,102017.41
2023-05-21T09:46:00.417Z,102007.75
2023-05-21T09:48:37.314Z,102013.69
2023-05-21T09:51:14.917Z,102022.25
2023-05-21T09:53:50.108Z,102019.72
2023-05-21T09:56:23.809Z,102026.25
2023-05-21T09:58:56.106Z,102020.31
2023-05-21T10:01:26.242Z,102023.53
2023-05-21T10:03:57.689Z,102010.38
2023-05-21T10:06:28.953Z,102014.31
2023-05-21T10:08:59.536Z,102006.63
2023-05-21T10:11:32.066Z,102009.50
2023-05-21T10:14:06.244Z,102015.19
2023-05-21T10:16:36.468Z,102010.50
2023-05-21T10:19:06.195Z,102009.50
2023-05-21T10:21:36.492Z,102013.06
2023-05-21T10:24:05.669Z,102011.25
2023-05-21T10:26:34.670Z,102009.84
2023-05-21T10:29:04.447Z,102007.22
2023-05-21T10:31:33.584Z,101997.06
2023-05-21T10:34:06.230Z,101995.28
2023-05-21T10:36:38.031Z,101998.97
2023-05-21T10:39:09.857Z,101989.34
2023-05-21T10:41:49.825Z,101992.16
2023-05-21T10:44:28.482Z,101988.16
2023-05-21T10:47:15.413Z,102003.94
2023-05-21T10:50:00.675Z,102003.41
2023-05-21T10:52:52.073Z,101991.72
2023-05-21T10:55:34.990Z,101987.31
2023-05-21T10:58:33.906Z,101978.81
2023-05-21T11:01:04.407Z,101972.88
2023-05-21T11:03:37.408Z,101972.59
2023-05-21T11:06:08.821Z,101972.66
2023-05-21T11:08:39.116Z,101969.31
2023-05-21T11:11:07.782Z,101961.25
2023-05-21T11:13:51.170Z,101958.50
2023-05-21T11:16:22.321Z,101960.91
2023-05-21T11:19:04.463Z,101956.03
2023-05-21T11:21:36.206Z,101952.13
2023-05-21T11:24:11.303Z,101954.44
2023-05-21T11:27:05.020Z,101946.66
2023-05-21T11:29:44.655Z,101951.91
2023-05-21T11:32:15.641Z,101950.19
2023-05-21T11:34:47.288Z,101950.94
2023-05-21T11:37:34.620Z,101950.31
2023-05-21T11:40:31.172Z,101950.91
2023-05-21T11:42:59.800Z,101949.72
2023-05-21T11:45:32.249Z,101942.63
2023-05-21T11:48:01.684Z,101925.22
2023-05-21T11:50:33.972Z,101947.50
2023-05-21T11:53:02.859Z,101953.75
2023-05-21T11:55:33.391Z,101944.81
2023-05-21T11:58:02.988Z,101951.16
2023-05-21T12:00:31.530Z,101936.97
2023-05-21T12:03:00.224Z,101928.81
2023-05-21T12:05:29.121Z,101929.88
2023-05-21T12:07:58.615Z,101933.53
2023-05-21T12:10:27.418Z,101932.41
2023-05-21T12:12:57.837Z,101933.50
2023-05-21T12:15:28.341Z,101921.44
2023-05-21T12:17:58.092Z,101925.59
2023-05-21T12:20:29.878Z,101923.34
2023-05-21T12:23:01.655Z,101930.31
2023-05-21T12:25:32.229Z,101927.63
2023-05-21T12:28:03.772Z,101923.34
2023-05-21T12:30:32.966Z,101924.31
2023-05-21T12:33:03.344Z,101916.84
2023-05-21T12:35:32.756Z,101928.16
2023-05-21T12:38:03.292Z,101919.69
2023-05-21T12:40:39.598Z,101928.22
2023-05-21T12:43:10.286Z,101933.38
2023-05-21T12:45:41.076Z,101925.19
2023-05-21T12:48:10.006Z,101924.97
2023-05-21T12:50:42.225Z,101917.75
2023-05-21T12:53:11.400Z,101909.47
2023-05-21T12:55:40.825Z,101907.09
2023-05-21T12:58:15.663Z,101914.66
2023-05-21T13:00:45.683Z,101914.97
2023-05-21T13:03:14.685Z,101908.13
2023-05-21T13:05:43.359Z,101901.94
2023-05-21T13:08:14.572Z,101899.72
2023-05-21T13:10:43.504Z,101899.38
2023-05-21T13:13:13.512Z,101896.47
2023-05-21T13:15:42.080Z,101900.38
2023-05-21T13:18:12.635Z,101904.03
2023-05-21T13:20:41.340Z,101901.34
2023-05-21T13:23:11.446Z,101906.47
2023-05-21T13:25:41.368Z,101905.00
2023-05-21T13:28:10.708Z,101893.13
2023-05-21T13:30:40.863Z,101888.31
2023-05-21T13:33:09.571Z,101884.22
2023-05-21T13:35:38.158Z,101892.44
2023-05-21T13:38:06.681Z,101881.41
2023-05-21T13:40:38.064Z,101873.88
2023-05-21T13:43:07.445Z,101875.75
2023-05-21T13:45:36.050Z,101880.97
2023-05-21T13:48:06.779Z,101871.47
2023-05-21T13:50:35.747Z,101879.72
2023-05-21T13:53:04.574Z,101879.41
2023-05-21T13:55:33.095Z,101878.81
2023-05-21T13:58:01.556Z,101879.06
2023-05-21T14:00:30.034Z,101879.91
2023-05-21T14:02:58.854Z,101877.19
2023-05-21T14:05:28.923Z,101869.16
2023-05-21T14:07:57.384Z,101863.50
2023-05-21T14:10:26.103Z,101862.47
2023-05-21T14:12:59.212Z,101855.84
2023-05-21T14:15:33.673Z,101861.09
2023-05-21T14:18:02.319Z,101860.38
2023-05-21T14:20:32.393Z,101852.97
2023-05-21T14:23:01.012Z,101851.13
2023-05-21T14:25:29.679Z,101854.88
2023-05-21T14:27:58.372Z,101850.31
2023-05-21T14:30:26.929Z,101850.13
2023-05-21T14:32:57.815Z,101862.09
2023-05-21T14:35:26.556Z,101857.13
2023-05-21T14:37:56.590Z,101859.78
2023-05-21T14:40:25.218Z,101848.47
2023-05-21T14:42:54.491Z,101840.78
2023-05-21T14:45:23.149Z,101846.28
2023-05-21T14:47:51.897Z,101845.88
2023-05-21T14:50:20.495Z,101846.25
2023-05-21T14:52:49.076Z,101843.06
2023-05-21T14:55:22.523Z,101838.84
2023-05-21T14:57:51.257Z,101843.13
2023-05-21T15:00:19.995Z,101841.28
2023-05-21T15:02:48.940Z,101844.34
2023-05-21T15:05:17.745Z,101838.59
2023-05-21T15:07:46.331Z,101834.19
2023-05-21T15:10:17.280Z,101842.06
2023-05-21T15:12:48.745Z,101844.75
2023-05-21T15:15:17.519Z,101831.41
2023-05-21T15:17:46.288Z,101832.25
2023-05-21T15:20:15.659Z,101828.88
2023-05-21T15:22:44.300Z,101824.84
2023-05-21T15:25:13.159Z,101824.88
2023-05-21T15:27:41.903Z,101828.97
2023-05-21T15:30:12.702Z,101827.56
2023-05-21T15:32:40.997Z,101832.88
2023-05-21T15:35:10.494Z,101825.56
2023-05-21T15:37:39.163Z,101829.56
2023-05-21T15:40:09.440Z,101837.47
2023-05-21T15:42:38.033Z,101824.00
2023-05-21T15:45:07.514Z,101828.47
2023-05-21T15:47:42.719Z,101827.28
2023-05-21T15:50:12.677Z,101815.53
2023-05-21T15:52:43.003Z,101811.53
2023-05-21T15:55:11.721Z,101818.16
2023-05-21T15:57:40.338Z,101811.34
2023-05-21T16:00:11.021Z,101809.28
2023-05-21T16:02:42.299Z,101813.59
2023-05-21T16:05:11.535Z,101817.84
2023-05-21T16:07:40.098Z,101815.94
2023-05-21T16:10:11.728Z,101809.53
2023-05-21T16:12:40.514Z,101809.53
2023-05-21T16:15:09.928Z,101809.47
2023-05-21T16:17:38.689Z,101802.63
2023-05-21T16:20:09.906Z,101805.75
2023-05-21T16:22:38.558Z,101792.47
2023-05-21T16:25:08.251Z,101800.00
2023-05-21T16:27:36.800Z,101793.75
2023-05-21T16:30:07.619Z,101795.41
2023-05-21T16:32:35.952Z,101797.44
2023-05-21T16:35:05.009Z,101796.59
2023-05-21T16:37:35.560Z,101796.16
2023-05-21T16:40:04.879Z,101788.56
2023-05-21T16:42:33.442Z,101793.41
2023-05-21T16:45:02.043Z,101781.72
2023-05-21T16:47:30.620Z,101788.56
2023-05-21T16:49:59.290Z,101789.47
2023-05-21T16:52:28.046Z,101795.72
2023-05-21T16:54:58.087Z,101795.47
2023-05-21T16:57:26.626Z,101788.25
2023-05-21T16:59:55.224Z,101788.22
2023-05-21T17:02:24.604Z,101785.00
2023-05-21T17:04:53.195Z,101786.41
2023-05-21T17:07:21.962Z,101791.72
2023-05-21T17:09:50.837Z,101781.69
2023-05-21T17:12:20.888Z,101780.84
2023-05-21T17:14:49.463Z,101789.19
2023-05-21T17:17:18.045Z,101787.34
2023-05-21T17:19:46.609Z,101786.31
2023-05-21T17:22:15.617Z,101779.16
2023-05-21T17:24:44.241Z,101783.94
2023-05-21T17:27:12.945Z,101786.13
2023-05-21T17:29:42.954Z,101777.13
2023-05-21T17:32:12.526Z,101778.13
2023-05-21T17:34:41.123Z,101778.91
2023-05-21T17:37:09.747Z,101774.34
2023-05-21T17:39:38.285Z,101771.44
2023-05-21T17:42:07.413Z,101767.16
2023-05-21T17:44:36.025Z,101766.69
2023-05-21T17:47:08.305Z,101767.19
2023-05-21T17:49:36.972Z,101770.28
2023-05-21T17:52:06.024Z,101767.75
2023-05-21T17:54:35.253Z,101768.59
2023-05-21T17:57:04.076Z,101770.75
2023-05-21T17:59:32.768Z,101773.84
2023-05-21T18:02:02.398Z,101772.50
2023-05-21T18:04:32.445Z,101765.16
2023-05-21T18:07:01.327Z,101766.56
2023-05-21T18:09:30.010Z,101762.91
2023-05-21T18:11:59.841Z,101758.81
2023-05-21T18:14:29.479Z,101762.06
2023-05-21T18:16:58.193Z,101756.75
2023-05-21T18:19:26.929Z,101750.44
2023-05-21T18:21:57.145Z,101755.97
2023-05-21T18:24:25.966Z,101757.06
2023-05-21T18:26:54.535Z,101761.47
2023-05-21T18:29:23.081Z,101752.59
2023-05-21T18:31:51.826Z,101758.44
2023-05-21T18:34:20.297Z,101758.59
2023-05-21T18:36:48.863Z,101758.38
2023-05-21T18:39:18.838Z,101766.72
2023-05-21T18:41:47.314Z,101771.25
2023-05-21T18:44:16.335Z,101764.91
2023-05-21T18:46:45.468Z,101764.84
2023-05-21T18:49:13.988Z,101763.63
2023-05-21T18:51:42.621Z,101766.31
2023-05-21T18:54:11.228Z,101773.25
2023-05-21T18:56:41.298Z,101771.38
2023-05-21T18:59:09.941Z,101774.88
2023-05-21T19:01:38.553Z,101766.47
2023-05-21T19:04:07.114Z,101768.88
2023-05-21T19:06:36.114Z,101766.13
2023-05-21T19:09:04.979Z,101768.28
2023-05-21T19:11:34.608Z,101761.50
2023-05-21T19:14:04.737Z,101762.75
2023-05-21T19:16:33.436Z,101758.66
2023-05-21T19:19:02.504Z,101756.09
2023-05-21T19:21:31.687Z,101746.94
2023-05-21T19:24:00.332Z,101746.50
2023-05-21T19:26:29.127Z,101753.97
2023-05-21T19:28:57.779Z,101748.31
2023-05-21T19:31:28.059Z,101754.00
2023-05-21T19:33:56.786Z,101752.81
2023-05-21T19:36:26.881Z,101754.41
2023-05-21T19:38:59.049Z,101750.84
2023-05-21T19:41:27.902Z,101760.78
2023-05-21T19:43:56.422Z,101762.09
2023-05-21T19:46:25.274Z,101766.06
2023-05-21T19:48:55.282Z,101767.31
2023-05-21T19:51:24.008Z,101763.16
2023-05-21T19:53:52.723Z,101757.59
2023-05-21T19:56:22.117Z,101769.25
2023-05-21T19:58:50.769Z,101763.81
2023-05-21T20:01:19.565Z,101762.53
2023-05-21T20:03:48.453Z,101765.13
2023-05-21T20:06:20.876Z,101760.38
2023-05-21T20:08:49.446Z,101766.59
2023-05-21T20:11:18.000Z,101748.94
2023-05-21T20:13:50.261Z,101751.69
2023-05-21T20:16:20.279Z,101754.63
2023-05-21T20:18:49.305Z,101755.03
2023-05-21T20:21:20.510Z,101753.63
2023-05-21T20:23:49.887Z,101759.25
2023-05-21T20:26:19.773Z,101755.28
2023-05-21T20:28:48.480Z,101752.25
2023-05-21T20:31:17.074Z,101756.34
2023-05-21T20:33:46.575Z,101758.31
2023-05-21T20:36:15.564Z,101751.66
2023-05-21T20:38:45.810Z,101749.09
2023-05-21T20:41:15.134Z,101756.75
2023-05-21T20:43:46.129Z,101755.81
2023-05-21T20:46:17.874Z,101756.81
2023-05-21T20:48:47.510Z,101762.00
2023-05-21T20:51:16.044Z,101764.56
2023-05-21T20:53:46.121Z,101758.50
2023-05-21T20:56:15.091Z,101760.84
2023-05-21T20:58:43.977Z,101764.44
2023-05-21T21:01:14.640Z,101760.03
2023-05-21T21:03:45.857Z,101763.69
2023-05-21T21:06:14.803Z,101760.13
2023-05-21T21:08:46.357Z,101757.31
2023-05-21T21:11:16.462Z,101763.31
2023-05-21T21:13:44.938Z,101760.16
2023-05-21T21:16:13.608Z,101767.16
2023-05-21T21:18:42.347Z,101760.63
2023-05-21T21:21:10.944Z,101765.28
2023-05-21T21:23:39.677Z,101761.59
2023-05-21T21:26:08.365Z,101759.75
2023-05-21T21:28:38.379Z,101762.22
2023-05-21T21:31:07.128Z,101755.59
2023-05-21T21:33:35.511Z,101760.03
2023-05-21T21:36:04.027Z,101764.31
2023-05-21T21:38:32.708Z,101755.94
2023-05-21T21:41:01.372Z,101752.75
2023-05-21T21:43:29.884Z,101751.75
2023-05-21T21:46:00.216Z,101749.03
2023-05-21T21:48:28.832Z,101757.94
2023-05-21T21:50:57.663Z,101751.09
2023-05-21T21:53:26.262Z,101746.31
2023-05-21T21:55:56.058Z,101744.72
2023-05-21T21:58:27.923Z,101744.47
2023-05-21T22:00:56.629Z,101746.50
2023-05-21T22:03:26.627Z,101741.25
2023-05-21T22:05:55.717Z,101745.22
2023-05-21T22:08:25.762Z,101738.13
2023-05-21T22:10:54.390Z,101738.31
2023-05-21T22:13:23.002Z,101739.72
2023-05-21T22:15:51.752Z,101755.38
2023-05-21T22:18:28.440Z,101748.88
2023-05-21T22:21:10.197Z,101757.00
2023-05-21T22:23:39.468Z,101750.09
2023-05-21T22:26:08.197Z,101757.56
2023-05-21T22:28:37.054Z,101762.09
2023-05-21T22:31:06.052Z,101755.25
2023-05-21T22:33:34.728Z,101756.91
2023-05-21T22:36:03.208Z,101752.09
2023-05-21T22:38:33.185Z,101754.09
2023-05-21T22:41:01.808Z,101761.31
2023-05-21T22:43:30.420Z,101768.16
2023-05-21T22:45:58.888Z,101759.03
2023-05-21T22:48:30.727Z,101765.88
2023-05-21T22:50:59.652Z,101760.72
2023-05-21T22:53:28.125Z,101761.72
2023-05-21T22:55:58.304Z,101756.31
2023-05-21T22:58:27.011Z,101767.56
2023-05-21T23:00:55.646Z,101759.25
2023-05-21T23:03:24.231Z,101760.31
2023-05-21T23:05:52.883Z,101752.69
2023-05-21T23:08:21.391Z,101747.53
2023-05-21T23:10:49.993Z,101752.00
2023-05-21T23:13:20.029Z,101744.63
2023-05-21T23:15:48.725Z,101748.78
2023-05-21T23:18:17.646Z,101744.28
2023-05-21T23:20:46.317Z,101742.03
2023-05-21T23:23:14.775Z,101740.84
2023-05-21T23:25:43.372Z,101739.44
2023-05-21T23:28:11.833Z,101734.03
2023-05-21T23:30:41.945Z,101734.59
2023-05-21T23:33:11.201Z,101733.13
2023-05-21T23:35:39.714Z,101732.94
2023-05-21T23:38:08.183Z,101735.97
2023-05-21T23:40:37.393Z,101727.72
2023-05-21T23:43:06.229Z,101726.88
2023-05-21T23:45:34.922Z,101726.88
2023-05-21T23:48:05.488Z,101729.28
2023-05-21T23:50:34.241Z,101725.81
2023-05-21T23:53:02.763Z,101725.53
2023-05-21T23:55:31.348Z,101720.03
2023-05-21T23:57:59.758Z,101722.53
